sensor_id;sensor_type;location;lat;lon;timestamp;P1;durP1;ratioP1;P2;durP2;ratioP2
71351;SDS011;59159;51.652;4.864;2023-02-08T00:00:43;8.50;;;3.70;;
71351;SDS011;59159;51.652;4.864;2023-02-08T00:03:09;10.80;;;4.72;;
71351;SDS011;59159;51.652;4.864;2023-02-08T00:05:36;9.10;;;4.20;;
71351;SDS011;59159;51.652;4.864;2023-02-08T00:08:02;10.57;;;4.40;;
71351;SDS011;59159;51.652;4.864;2023-02-08T00:10:28;9.63;;;4.30;;
71351;SDS011;59159;51.652;4.864;2023-02-08T00:12:54;10.27;;;4.90;;
71351;SDS011;59159;51.652;4.864;2023-02-08T00:15:20;9.47;;;4.60;;
71351;SDS011;59159;51.652;4.864;2023-02-08T00:17:46;10.00;;;4.13;;
71351;SDS011;59159;51.652;4.864;2023-02-08T00:20:12;9.63;;;3.97;;
71351;SDS011;59159;51.652;4.864;2023-02-08T00:22:39;9.70;;;4.40;;
71351;SDS011;59159;51.652;4.864;2023-02-08T00:25:05;11.43;;;4.50;;
71351;SDS011;59159;51.652;4.864;2023-02-08T00:27:31;10.55;;;4.70;;
71351;SDS011;59159;51.652;4.864;2023-02-08T00:29:57;9.93;;;4.37;;
71351;SDS011;59159;51.652;4.864;2023-02-08T00:32:23;8.85;;;3.83;;
71351;SDS011;59159;51.652;4.864;2023-02-08T00:34:49;10.13;;;3.80;;
71351;SDS011;59159;51.652;4.864;2023-02-08T00:37:15;9.45;;;4.47;;
71351;SDS011;59159;51.652;4.864;2023-02-08T00:39:41;8.50;;;3.93;;
71351;SDS011;59159;51.652;4.864;2023-02-08T00:42:07;10.10;;;4.53;;
71351;SDS011;59159;51.652;4.864;2023-02-08T00:44:34;9.75;;;4.07;;
71351;SDS011;59159;51.652;4.864;2023-02-08T00:47:00;9.30;;;3.87;;
71351;SDS011;59159;51.652;4.864;2023-02-08T00:49:26;8.43;;;3.80;;
71351;SDS011;59159;51.652;4.864;2023-02-08T00:51:52;10.18;;;4.07;;
71351;SDS011;59159;51.652;4.864;2023-02-08T00:54:18;8.73;;;3.53;;
71351;SDS011;59159;51.652;4.864;2023-02-08T00:56:45;8.90;;;3.40;;
71351;SDS011;59159;51.652;4.864;2023-02-08T00:59:11;10.52;;;4.35;;
71351;SDS011;59159;51.652;4.864;2023-02-08T01:01:37;10.88;;;4.47;;
71351;SDS011;59159;51.652;4.864;2023-02-08T01:04:03;8.60;;;3.73;;
71351;SDS011;59159;51.652;4.864;2023-02-08T01:06:29;11.93;;;4.53;;
71351;SDS011;59159;51.652;4.864;2023-02-08T01:08:56;8.63;;;3.95;;
71351;SDS011;59159;51.652;4.864;2023-02-08T01:11:22;7.87;;;3.33;;
71351;SDS011;59159;51.652;4.864;2023-02-08T01:13:49;9.02;;;3.95;;
71351;SDS011;59159;51.652;4.864;2023-02-08T01:16:18;8.65;;;4.07;;
71351;SDS011;59159;51.652;4.864;2023-02-08T01:18:47;9.90;;;4.47;;
71351;SDS011;59159;51.652;4.864;2023-02-08T01:21:14;9.57;;;3.78;;
71351;SDS011;59159;51.652;4.864;2023-02-08T01:23:41;9.07;;;3.58;;
71351;SDS011;59159;51.652;4.864;2023-02-08T01:26:08;9.98;;;4.13;;
71351;SDS011;59159;51.652;4.864;2023-02-08T01:28:34;10.13;;;4.30;;
71351;SDS011;59159;51.652;4.864;2023-02-08T01:31:04;8.90;;;3.85;;
71351;SDS011;59159;51.652;4.864;2023-02-08T01:33:31;10.02;;;4.68;;
71351;SDS011;59159;51.652;4.864;2023-02-08T01:35:57;7.37;;;3.30;;
71351;SDS011;59159;51.652;4.864;2023-02-08T01:38:23;8.82;;;3.67;;
71351;SDS011;59159;51.652;4.864;2023-02-08T01:40:49;8.10;;;3.45;;
71351;SDS011;59159;51.652;4.864;2023-02-08T01:43:20;8.67;;;3.93;;
71351;SDS011;59159;51.652;4.864;2023-02-08T01:45:46;8.15;;;3.80;;
71351;SDS011;59159;51.652;4.864;2023-02-08T01:48:14;8.68;;;3.70;;
71351;SDS011;59159;51.652;4.864;2023-02-08T01:50:51;8.95;;;3.90;;
71351;SDS011;59159;51.652;4.864;2023-02-08T01:53:20;8.27;;;3.77;;
71351;SDS011;59159;51.652;4.864;2023-02-08T01:55:47;9.75;;;3.50;;
71351;SDS011;59159;51.652;4.864;2023-02-08T01:58:15;8.65;;;3.65;;
71351;SDS011;59159;51.652;4.864;2023-02-08T02:00:43;9.67;;;3.50;;
71351;SDS011;59159;51.652;4.864;2023-02-08T02:03:09;8.00;;;3.25;;
71351;SDS011;59159;51.652;4.864;2023-02-08T02:05:40;7.03;;;3.15;;
71351;SDS011;59159;51.652;4.864;2023-02-08T02:08:06;7.90;;;3.73;;
71351;SDS011;59159;51.652;4.864;2023-02-08T02:10:33;7.20;;;3.20;;
71351;SDS011;59159;51.652;4.864;2023-02-08T02:13:01;7.90;;;3.00;;
71351;SDS011;59159;51.652;4.864;2023-02-08T02:15:28;8.18;;;3.10;;
71351;SDS011;59159;51.652;4.864;2023-02-08T02:17:54;8.50;;;3.50;;
71351;SDS011;59159;51.652;4.864;2023-02-08T02:30:38;7.20;;;2.92;;
71351;SDS011;59159;51.652;4.864;2023-02-08T02:35:45;8.20;;;3.28;;
71351;SDS011;59159;51.652;4.864;2023-02-08T02:43:25;6.90;;;3.03;;
71351;SDS011;59159;51.652;4.864;2023-02-08T02:46:15;6.93;;;2.88;;
71351;SDS011;59159;51.652;4.864;2023-02-08T02:48:49;6.03;;;2.50;;
71351;SDS011;59159;51.652;4.864;2023-02-08T02:51:19;6.77;;;2.70;;
71351;SDS011;59159;51.652;4.864;2023-02-08T02:56:24;7.70;;;2.58;;
71351;SDS011;59159;51.652;4.864;2023-02-08T02:58:51;7.57;;;2.80;;
71351;SDS011;59159;51.652;4.864;2023-02-08T03:01:23;6.28;;;2.38;;
71351;SDS011;59159;51.652;4.864;2023-02-08T03:03:54;7.30;;;3.10;;
71351;SDS011;59159;51.652;4.864;2023-02-08T03:09:11;6.20;;;2.60;;
71351;SDS011;59159;51.652;4.864;2023-02-08T03:11:44;7.20;;;2.70;;
71351;SDS011;59159;51.652;4.864;2023-02-08T03:14:14;7.15;;;2.80;;
71351;SDS011;59159;51.652;4.864;2023-02-08T03:22:13;7.10;;;2.72;;
71351;SDS011;59159;51.652;4.864;2023-02-08T03:27:09;7.75;;;3.00;;
71351;SDS011;59159;51.652;4.864;2023-02-08T03:32:49;7.18;;;2.63;;
71351;SDS011;59159;51.652;4.864;2023-02-08T03:35:01;7.17;;;2.70;;
71351;SDS011;59159;51.652;4.864;2023-02-08T03:37:29;6.25;;;2.42;;
71351;SDS011;59159;51.652;4.864;2023-02-08T03:40:05;7.03;;;2.38;;
71351;SDS011;59159;51.652;4.864;2023-02-08T03:42:33;6.23;;;2.50;;
71351;SDS011;59159;51.652;4.864;2023-02-08T03:45:01;7.63;;;2.67;;
71351;SDS011;59159;51.652;4.864;2023-02-08T03:47:33;6.15;;;2.92;;
71351;SDS011;59159;51.652;4.864;2023-02-08T03:50:03;8.93;;;2.77;;
71351;SDS011;59159;51.652;4.864;2023-02-08T03:52:29;6.82;;;2.80;;
71351;SDS011;59159;51.652;4.864;2023-02-08T03:54:57;6.90;;;2.80;;
71351;SDS011;59159;51.652;4.864;2023-02-08T03:57:25;8.30;;;3.00;;
71351;SDS011;59159;51.652;4.864;2023-02-08T03:59:53;6.67;;;2.83;;
71351;SDS011;59159;51.652;4.864;2023-02-08T04:02:20;6.63;;;2.70;;
71351;SDS011;59159;51.652;4.864;2023-02-08T04:04:48;7.05;;;3.28;;
71351;SDS011;59159;51.652;4.864;2023-02-08T04:07:15;6.53;;;2.30;;
71351;SDS011;59159;51.652;4.864;2023-02-08T04:09:41;6.88;;;2.90;;
71351;SDS011;59159;51.652;4.864;2023-02-08T04:12:07;6.40;;;2.47;;
71351;SDS011;59159;51.652;4.864;2023-02-08T04:14:33;5.87;;;2.47;;
71351;SDS011;59159;51.652;4.864;2023-02-08T04:16:59;6.38;;;2.35;;
71351;SDS011;59159;51.652;4.864;2023-02-08T04:19:27;6.97;;;2.65;;
71351;SDS011;59159;51.652;4.864;2023-02-08T04:21:53;6.63;;;2.70;;
71351;SDS011;59159;51.652;4.864;2023-02-08T04:24:19;7.17;;;2.33;;
71351;SDS011;59159;51.652;4.864;2023-02-08T04:26:45;6.85;;;2.97;;
71351;SDS011;59159;51.652;4.864;2023-02-08T04:29:11;6.68;;;2.65;;
71351;SDS011;59159;51.652;4.864;2023-02-08T04:31:37;7.30;;;2.73;;
71351;SDS011;59159;51.652;4.864;2023-02-08T04:34:03;6.35;;;2.97;;
71351;SDS011;59159;51.652;4.864;2023-02-08T04:36:29;7.38;;;2.65;;
71351;SDS011;59159;51.652;4.864;2023-02-08T04:38:55;6.47;;;2.40;;
71351;SDS011;59159;51.652;4.864;2023-02-08T04:41:21;6.72;;;2.97;;
71351;SDS011;59159;51.652;4.864;2023-02-08T04:43:47;6.55;;;2.67;;
71351;SDS011;59159;51.652;4.864;2023-02-08T04:46:13;7.63;;;3.47;;
71351;SDS011;59159;51.652;4.864;2023-02-08T04:48:40;7.23;;;2.90;;
71351;SDS011;59159;51.652;4.864;2023-02-08T04:51:06;6.75;;;2.80;;
71351;SDS011;59159;51.652;4.864;2023-02-08T04:53:32;6.28;;;2.45;;
71351;SDS011;59159;51.652;4.864;2023-02-08T04:55:58;7.70;;;2.40;;
71351;SDS011;59159;51.652;4.864;2023-02-08T04:58:24;6.05;;;2.63;;
71351;SDS011;59159;51.652;4.864;2023-02-08T05:00:50;6.95;;;2.40;;
71351;SDS011;59159;51.652;4.864;2023-02-08T05:03:17;6.93;;;2.60;;
71351;SDS011;59159;51.652;4.864;2023-02-08T05:05:43;6.25;;;2.53;;
71351;SDS011;59159;51.652;4.864;2023-02-08T05:08:09;7.20;;;2.90;;
71351;SDS011;59159;51.652;4.864;2023-02-08T05:10:35;7.30;;;2.83;;
71351;SDS011;59159;51.652;4.864;2023-02-08T05:13:01;7.30;;;2.80;;
71351;SDS011;59159;51.652;4.864;2023-02-08T05:15:27;5.97;;;2.47;;
71351;SDS011;59159;51.652;4.864;2023-02-08T05:17:53;7.68;;;2.97;;
71351;SDS011;59159;51.652;4.864;2023-02-08T05:20:19;6.73;;;2.80;;
71351;SDS011;59159;51.652;4.864;2023-02-08T05:22:45;7.03;;;2.80;;
71351;SDS011;59159;51.652;4.864;2023-02-08T05:25:11;6.30;;;2.45;;
71351;SDS011;59159;51.652;4.864;2023-02-08T05:27:37;6.03;;;2.80;;
71351;SDS011;59159;51.652;4.864;2023-02-08T05:30:03;6.43;;;2.67;;
71351;SDS011;59159;51.652;4.864;2023-02-08T05:32:29;6.55;;;2.25;;
71351;SDS011;59159;51.652;4.864;2023-02-08T05:34:55;6.47;;;2.60;;
71351;SDS011;59159;51.652;4.864;2023-02-08T05:37:21;6.03;;;2.30;;
71351;SDS011;59159;51.652;4.864;2023-02-08T05:39:47;6.82;;;2.40;;
71351;SDS011;59159;51.652;4.864;2023-02-08T05:42:13;6.95;;;2.67;;
71351;SDS011;59159;51.652;4.864;2023-02-08T05:44:39;8.67;;;2.70;;
71351;SDS011;59159;51.652;4.864;2023-02-08T05:47:05;6.53;;;2.50;;
71351;SDS011;59159;51.652;4.864;2023-02-08T05:49:31;6.95;;;3.10;;
71351;SDS011;59159;51.652;4.864;2023-02-08T05:51:57;6.80;;;3.07;;
71351;SDS011;59159;51.652;4.864;2023-02-08T05:54:23;5.82;;;2.20;;
71351;SDS011;59159;51.652;4.864;2023-02-08T05:56:49;8.23;;;2.63;;
71351;SDS011;59159;51.652;4.864;2023-02-08T05:59:15;6.90;;;2.70;;
71351;SDS011;59159;51.652;4.864;2023-02-08T06:01:41;5.97;;;2.10;;
71351;SDS011;59159;51.652;4.864;2023-02-08T06:04:07;5.70;;;2.50;;
71351;SDS011;59159;51.652;4.864;2023-02-08T06:06:33;6.72;;;2.50;;
71351;SDS011;59159;51.652;4.864;2023-02-08T06:08:59;8.33;;;2.90;;
71351;SDS011;59159;51.652;4.864;2023-02-08T06:11:25;6.90;;;2.42;;
71351;SDS011;59159;51.652;4.864;2023-02-08T06:13:52;6.97;;;2.50;;
71351;SDS011;59159;51.652;4.864;2023-02-08T06:16:18;6.50;;;2.47;;
71351;SDS011;59159;51.652;4.864;2023-02-08T06:18:44;6.28;;;2.47;;
71351;SDS011;59159;51.652;4.864;2023-02-08T06:21:10;7.88;;;2.70;;
71351;SDS011;59159;51.652;4.864;2023-02-08T06:23:36;6.22;;;2.63;;
71351;SDS011;59159;51.652;4.864;2023-02-08T06:26:02;7.30;;;2.90;;
71351;SDS011;59159;51.652;4.864;2023-02-08T06:28:28;6.43;;;3.10;;
71351;SDS011;59159;51.652;4.864;2023-02-08T06:30:54;6.53;;;2.75;;
71351;SDS011;59159;51.652;4.864;2023-02-08T06:33:20;6.23;;;2.33;;
71351;SDS011;59159;51.652;4.864;2023-02-08T06:35:55;7.55;;;2.92;;
71351;SDS011;59159;51.652;4.864;2023-02-08T06:38:21;7.10;;;2.83;;
71351;SDS011;59159;51.652;4.864;2023-02-08T06:40:47;6.57;;;2.50;;
71351;SDS011;59159;51.652;4.864;2023-02-08T06:43:13;6.65;;;2.60;;
71351;SDS011;59159;51.652;4.864;2023-02-08T06:45:40;7.40;;;2.55;;
71351;SDS011;59159;51.652;4.864;2023-02-08T06:48:06;6.22;;;2.40;;
71351;SDS011;59159;51.652;4.864;2023-02-08T06:50:32;6.63;;;2.57;;
71351;SDS011;59159;51.652;4.864;2023-02-08T06:52:59;7.50;;;2.67;;
71351;SDS011;59159;51.652;4.864;2023-02-08T06:55:24;6.40;;;2.88;;
71351;SDS011;59159;51.652;4.864;2023-02-08T06:57:53;6.80;;;2.50;;
71351;SDS011;59159;51.652;4.864;2023-02-08T07:00:19;6.60;;;2.88;;
71351;SDS011;59159;51.652;4.864;2023-02-08T07:02:46;6.30;;;2.38;;
71351;SDS011;59159;51.652;4.864;2023-02-08T07:05:12;8.93;;;3.10;;
71351;SDS011;59159;51.652;4.864;2023-02-08T07:07:38;8.75;;;2.97;;
71351;SDS011;59159;51.652;4.864;2023-02-08T07:10:04;6.53;;;2.75;;
71351;SDS011;59159;51.652;4.864;2023-02-08T07:12:34;11.55;;;3.25;;
71351;SDS011;59159;51.652;4.864;2023-02-08T07:15:01;6.60;;;2.80;;
71351;SDS011;59159;51.652;4.864;2023-02-08T07:17:27;6.50;;;2.60;;
71351;SDS011;59159;51.652;4.864;2023-02-08T07:19:53;8.25;;;3.50;;
71351;SDS011;59159;51.652;4.864;2023-02-08T07:22:19;7.17;;;3.03;;
71351;SDS011;59159;51.652;4.864;2023-02-08T07:24:45;7.57;;;3.17;;
71351;SDS011;59159;51.652;4.864;2023-02-08T07:27:11;10.23;;;4.30;;
71351;SDS011;59159;51.652;4.864;2023-02-08T07:29:37;9.10;;;3.67;;
71351;SDS011;59159;51.652;4.864;2023-02-08T07:32:04;12.07;;;4.30;;
71351;SDS011;59159;51.652;4.864;2023-02-08T07:34:31;9.55;;;3.17;;
71351;SDS011;59159;51.652;4.864;2023-02-08T07:36:57;8.77;;;3.47;;
71351;SDS011;59159;51.652;4.864;2023-02-08T07:39:23;8.23;;;3.30;;
71351;SDS011;59159;51.652;4.864;2023-02-08T07:41:50;9.13;;;3.35;;
71351;SDS011;59159;51.652;4.864;2023-02-08T07:44:16;10.65;;;3.70;;
71351;SDS011;59159;51.652;4.864;2023-02-08T07:46:42;8.83;;;3.20;;
71351;SDS011;59159;51.652;4.864;2023-02-08T07:49:08;8.07;;;3.03;;
71351;SDS011;59159;51.652;4.864;2023-02-08T07:51:34;11.13;;;3.30;;
71351;SDS011;59159;51.652;4.864;2023-02-08T07:54:00;8.17;;;3.30;;
71351;SDS011;59159;51.652;4.864;2023-02-08T07:56:26;9.25;;;3.35;;
71351;SDS011;59159;51.652;4.864;2023-02-08T07:58:52;12.57;;;3.33;;
71351;SDS011;59159;51.652;4.864;2023-02-08T08:01:18;8.82;;;3.40;;
71351;SDS011;59159;51.652;4.864;2023-02-08T08:03:44;6.90;;;2.97;;
71351;SDS011;59159;51.652;4.864;2023-02-08T08:06:10;9.80;;;3.38;;
71351;SDS011;59159;51.652;4.864;2023-02-08T08:08:36;9.15;;;2.95;;
71351;SDS011;59159;51.652;4.864;2023-02-08T08:11:02;6.73;;;2.80;;
71351;SDS011;59159;51.652;4.864;2023-02-08T08:13:28;7.13;;;2.58;;
71351;SDS011;59159;51.652;4.864;2023-02-08T08:15:54;6.82;;;2.72;;
71351;SDS011;59159;51.652;4.864;2023-02-08T08:18:20;9.53;;;3.20;;
71351;SDS011;59159;51.652;4.864;2023-02-08T08:20:46;8.30;;;3.10;;
71351;SDS011;59159;51.652;4.864;2023-02-08T08:23:11;7.03;;;2.60;;
71351;SDS011;59159;51.652;4.864;2023-02-08T08:25:38;7.90;;;3.15;;
71351;SDS011;59159;51.652;4.864;2023-02-08T08:28:06;7.27;;;2.77;;
71351;SDS011;59159;51.652;4.864;2023-02-08T08:30:32;8.73;;;2.80;;
71351;SDS011;59159;51.652;4.864;2023-02-08T08:32:58;8.85;;;2.58;;
71351;SDS011;59159;51.652;4.864;2023-02-08T08:35:24;7.77;;;2.50;;
71351;SDS011;59159;51.652;4.864;2023-02-08T08:37:50;12.85;;;3.30;;
71351;SDS011;59159;51.652;4.864;2023-02-08T08:40:16;14.05;;;3.20;;
71351;SDS011;59159;51.652;4.864;2023-02-08T08:42:42;11.17;;;3.47;;
71351;SDS011;59159;51.652;4.864;2023-02-08T08:45:08;6.78;;;2.70;;
71351;SDS011;59159;51.652;4.864;2023-02-08T08:47:34;6.75;;;2.80;;
71351;SDS011;59159;51.652;4.864;2023-02-08T08:50:00;9.43;;;3.00;;
71351;SDS011;59159;51.652;4.864;2023-02-08T08:52:27;10.50;;;2.80;;
71351;SDS011;59159;51.652;4.864;2023-02-08T08:54:53;7.25;;;2.65;;
71351;SDS011;59159;51.652;4.864;2023-02-08T08:57:19;8.32;;;2.88;;
71351;SDS011;59159;51.652;4.864;2023-02-08T08:59:45;9.20;;;2.60;;
71351;SDS011;59159;51.652;4.864;2023-02-08T09:02:11;8.50;;;3.45;;
71351;SDS011;59159;51.652;4.864;2023-02-08T09:04:37;8.70;;;2.72;;
71351;SDS011;59159;51.652;4.864;2023-02-08T09:07:05;9.87;;;2.80;;
71351;SDS011;59159;51.652;4.864;2023-02-08T09:09:31;7.22;;;2.55;;
71351;SDS011;59159;51.652;4.864;2023-02-08T09:11:57;6.30;;;2.50;;
71351;SDS011;59159;51.652;4.864;2023-02-08T09:14:23;6.78;;;3.03;;
71351;SDS011;59159;51.652;4.864;2023-02-08T09:16:49;6.03;;;2.57;;
71351;SDS011;59159;51.652;4.864;2023-02-08T09:19:15;7.15;;;2.55;;
71351;SDS011;59159;51.652;4.864;2023-02-08T09:21:42;7.82;;;2.88;;
71351;SDS011;59159;51.652;4.864;2023-02-08T09:24:08;6.90;;;2.50;;
71351;SDS011;59159;51.652;4.864;2023-02-08T09:26:34;8.00;;;2.60;;
71351;SDS011;59159;51.652;4.864;2023-02-08T09:29:00;6.53;;;2.58;;
71351;SDS011;59159;51.652;4.864;2023-02-08T09:31:30;6.77;;;2.70;;
71351;SDS011;59159;51.652;4.864;2023-02-08T09:33:57;7.32;;;2.78;;
71351;SDS011;59159;51.652;4.864;2023-02-08T09:36:25;7.40;;;3.00;;
71351;SDS011;59159;51.652;4.864;2023-02-08T09:38:56;7.93;;;2.90;;
71351;SDS011;59159;51.652;4.864;2023-02-08T09:44:13;6.22;;;2.58;;
71351;SDS011;59159;51.652;4.864;2023-02-08T09:46:42;7.28;;;2.50;;
71351;SDS011;59159;51.652;4.864;2023-02-08T09:49:14;5.90;;;2.40;;
71351;SDS011;59159;51.652;4.864;2023-02-08T09:51:43;7.22;;;2.60;;
71351;SDS011;59159;51.652;4.864;2023-02-08T09:56:40;6.90;;;2.40;;
71351;SDS011;59159;51.652;4.864;2023-02-08T09:59:15;6.78;;;2.42;;
71351;SDS011;59159;51.652;4.864;2023-02-08T10:01:41;6.72;;;2.38;;
71351;SDS011;59159;51.652;4.864;2023-02-08T10:04:12;7.30;;;3.10;;
71351;SDS011;59159;51.652;4.864;2023-02-08T10:06:39;7.67;;;2.70;;
71351;SDS011;59159;51.652;4.864;2023-02-08T10:09:06;6.45;;;2.40;;
71351;SDS011;59159;51.652;4.864;2023-02-08T10:27:16;7.85;;;2.90;;
71351;SDS011;59159;51.652;4.864;2023-02-08T10:29:58;7.18;;;2.75;;
71351;SDS011;59159;51.652;4.864;2023-02-08T10:32:30;6.57;;;2.50;;
71351;SDS011;59159;51.652;4.864;2023-02-08T10:35:02;6.88;;;2.50;;
71351;SDS011;59159;51.652;4.864;2023-02-08T10:37:30;7.15;;;2.55;;
71351;SDS011;59159;51.652;4.864;2023-02-08T10:45:40;6.63;;;2.50;;
71351;SDS011;59159;51.652;4.864;2023-02-08T10:48:10;6.43;;;2.47;;
71351;SDS011;59159;51.652;4.864;2023-02-08T10:50:41;6.35;;;2.70;;
71351;SDS011;59159;51.652;4.864;2023-02-08T10:53:11;6.80;;;2.53;;
71351;SDS011;59159;51.652;4.864;2023-02-08T10:55:39;7.32;;;2.53;;
71351;SDS011;59159;51.652;4.864;2023-02-08T10:58:06;5.97;;;2.40;;
71351;SDS011;59159;51.652;4.864;2023-02-08T11:00:36;6.32;;;2.67;;
71351;SDS011;59159;51.652;4.864;2023-02-08T11:05:41;6.80;;;2.23;;
71351;SDS011;59159;51.652;4.864;2023-02-08T11:08:10;6.00;;;2.22;;
71351;SDS011;59159;51.652;4.864;2023-02-08T11:10:38;6.57;;;2.60;;
71351;SDS011;59159;51.652;4.864;2023-02-08T11:15:51;6.88;;;2.50;;
71351;SDS011;59159;51.652;4.864;2023-02-08T11:18:24;6.95;;;2.53;;
71351;SDS011;59159;51.652;4.864;2023-02-08T11:20:55;5.88;;;2.28;;
71351;SDS011;59159;51.652;4.864;2023-02-08T11:23:24;6.67;;;2.30;;
71351;SDS011;59159;51.652;4.864;2023-02-08T11:25:52;6.40;;;2.40;;
71351;SDS011;59159;51.652;4.864;2023-02-08T11:28:28;6.75;;;2.28;;
71351;SDS011;59159;51.652;4.864;2023-02-08T11:31:02;6.07;;;2.40;;
71351;SDS011;59159;51.652;4.864;2023-02-08T11:33:33;6.85;;;2.33;;
71351;SDS011;59159;51.652;4.864;2023-02-08T11:36:03;6.53;;;2.53;;
71351;SDS011;59159;51.652;4.864;2023-02-08T11:38:30;7.17;;;2.77;;
71351;SDS011;59159;51.652;4.864;2023-02-08T11:40:58;8.52;;;2.47;;
71351;SDS011;59159;51.652;4.864;2023-02-08T11:43:29;6.47;;;2.50;;
71351;SDS011;59159;51.652;4.864;2023-02-08T11:45:55;5.68;;;2.28;;
71351;SDS011;59159;51.652;4.864;2023-02-08T11:48:23;6.27;;;1.93;;
71351;SDS011;59159;51.652;4.864;2023-02-08T11:50:54;6.90;;;2.55;;
71351;SDS011;59159;51.652;4.864;2023-02-08T11:53:23;5.47;;;2.17;;
71351;SDS011;59159;51.652;4.864;2023-02-08T11:58:27;5.97;;;2.40;;
71351;SDS011;59159;51.652;4.864;2023-02-08T12:01:03;5.50;;;2.15;;
71351;SDS011;59159;51.652;4.864;2023-02-08T12:03:30;5.83;;;2.13;;
71351;SDS011;59159;51.652;4.864;2023-02-08T12:08:36;5.63;;;2.10;;
71351;SDS011;59159;51.652;4.864;2023-02-08T12:11:11;7.20;;;2.20;;
71351;SDS011;59159;51.652;4.864;2023-02-08T12:16:17;5.30;;;2.13;;
71351;SDS011;59159;51.652;4.864;2023-02-08T12:21:13;5.13;;;1.70;;
71351;SDS011;59159;51.652;4.864;2023-02-08T12:34:16;5.70;;;1.85;;
71351;SDS011;59159;51.652;4.864;2023-02-08T12:42:38;5.35;;;2.00;;
71351;SDS011;59159;51.652;4.864;2023-02-08T12:47:57;5.50;;;1.80;;
71351;SDS011;59159;51.652;4.864;2023-02-08T12:50:26;6.65;;;1.80;;
71351;SDS011;59159;51.652;4.864;2023-02-08T12:52:59;5.50;;;1.70;;
71351;SDS011;59159;51.652;4.864;2023-02-08T12:55:29;5.57;;;1.83;;
71351;SDS011;59159;51.652;4.864;2023-02-08T12:58:03;5.50;;;1.73;;
71351;SDS011;59159;51.652;4.864;2023-02-08T13:00:31;5.75;;;2.10;;
71351;SDS011;59159;51.652;4.864;2023-02-08T13:05:29;5.43;;;1.90;;
71351;SDS011;59159;51.652;4.864;2023-02-08T13:08:06;5.60;;;1.73;;
71351;SDS011;59159;51.652;4.864;2023-02-08T13:10:37;4.57;;;1.60;;
71351;SDS011;59159;51.652;4.864;2023-02-08T13:13:06;5.20;;;1.70;;
71351;SDS011;59159;51.652;4.864;2023-02-08T13:15:43;5.07;;;1.60;;
71351;SDS011;59159;51.652;4.864;2023-02-08T13:18:24;5.05;;;1.90;;
71351;SDS011;59159;51.652;4.864;2023-02-08T13:20:56;5.47;;;1.73;;
71351;SDS011;59159;51.652;4.864;2023-02-08T13:23:24;5.25;;;1.70;;
71351;SDS011;59159;51.652;4.864;2023-02-08T13:25:55;5.03;;;1.45;;
71351;SDS011;59159;51.652;4.864;2023-02-08T13:28:22;5.45;;;1.88;;
71351;SDS011;59159;51.652;4.864;2023-02-08T13:31:10;6.13;;;2.17;;
71351;SDS011;59159;51.652;4.864;2023-02-08T13:33:42;4.78;;;1.80;;
71351;SDS011;59159;51.652;4.864;2023-02-08T13:36:17;4.50;;;1.50;;
71351;SDS011;59159;51.652;4.864;2023-02-08T13:38:45;4.87;;;1.90;;
71351;SDS011;59159;51.652;4.864;2023-02-08T13:41:13;5.00;;;1.73;;
71351;SDS011;59159;51.652;4.864;2023-02-08T13:43:42;4.78;;;1.63;;
71351;SDS011;59159;51.652;4.864;2023-02-08T13:46:11;5.87;;;1.70;;
71351;SDS011;59159;51.652;4.864;2023-02-08T13:48:42;5.22;;;1.45;;
71351;SDS011;59159;51.652;4.864;2023-02-08T13:56:55;7.30;;;1.70;;
71351;SDS011;59159;51.652;4.864;2023-02-08T14:04:47;4.30;;;1.30;;
71351;SDS011;59159;51.652;4.864;2023-02-08T14:07:27;4.65;;;1.50;;
71351;SDS011;59159;51.652;4.864;2023-02-08T14:15:24;5.15;;;1.40;;
71351;SDS011;59159;51.652;4.864;2023-02-08T14:17:51;4.82;;;1.40;;
71351;SDS011;59159;51.652;4.864;2023-02-08T14:20:29;4.82;;;1.67;;
71351;SDS011;59159;51.652;4.864;2023-02-08T14:23:06;6.57;;;1.73;;
71351;SDS011;59159;51.652;4.864;2023-02-08T14:25:42;4.68;;;1.40;;
71351;SDS011;59159;51.652;4.864;2023-02-08T14:30:54;5.27;;;1.63;;
71351;SDS011;59159;51.652;4.864;2023-02-08T14:33:29;4.68;;;1.40;;
71351;SDS011;59159;51.652;4.864;2023-02-08T14:35:57;5.38;;;1.75;;
71351;SDS011;59159;51.652;4.864;2023-02-08T14:45:42;4.28;;;1.33;;
71351;SDS011;59159;51.652;4.864;2023-02-08T14:48:22;4.50;;;1.60;;
71351;SDS011;59159;51.652;4.864;2023-02-08T14:58:40;4.07;;;1.35;;
71351;SDS011;59159;51.652;4.864;2023-02-08T15:01:16;4.03;;;1.10;;
71351;SDS011;59159;51.652;4.864;2023-02-08T15:03:43;4.20;;;1.20;;
71351;SDS011;59159;51.652;4.864;2023-02-08T15:08:54;4.80;;;1.40;;
71351;SDS011;59159;51.652;4.864;2023-02-08T15:11:24;4.20;;;1.15;;
71351;SDS011;59159;51.652;4.864;2023-02-08T15:13:52;4.23;;;1.20;;
71351;SDS011;59159;51.652;4.864;2023-02-08T15:16:18;4.65;;;1.42;;
71351;SDS011;59159;51.652;4.864;2023-02-08T15:18:45;4.95;;;1.40;;
71351;SDS011;59159;51.652;4.864;2023-02-08T15:21:15;4.37;;;1.20;;
71351;SDS011;59159;51.652;4.864;2023-02-08T15:23:56;3.42;;;1.00;;
71351;SDS011;59159;51.652;4.864;2023-02-08T15:26:22;4.22;;;1.30;;
71351;SDS011;59159;51.652;4.864;2023-02-08T15:28:48;4.67;;;1.73;;
71351;SDS011;59159;51.652;4.864;2023-02-08T15:31:18;3.97;;;1.20;;
71351;SDS011;59159;51.652;4.864;2023-02-08T15:33:45;4.10;;;1.15;;
71351;SDS011;59159;51.652;4.864;2023-02-08T15:39:22;4.20;;;1.23;;
71351;SDS011;59159;51.652;4.864;2023-02-08T15:41:48;4.82;;;1.33;;
71351;SDS011;59159;51.652;4.864;2023-02-08T15:46:40;4.30;;;1.40;;
71351;SDS011;59159;51.652;4.864;2023-02-08T15:49:25;3.58;;;1.10;;
71351;SDS011;59159;51.652;4.864;2023-02-08T15:51:52;3.58;;;1.20;;
71351;SDS011;59159;51.652;4.864;2023-02-08T15:54:20;4.23;;;1.40;;
71351;SDS011;59159;51.652;4.864;2023-02-08T15:59:31;4.05;;;1.25;;
71351;SDS011;59159;51.652;4.864;2023-02-08T16:02:01;4.28;;;1.60;;
71351;SDS011;59159;51.652;4.864;2023-02-08T16:04:28;3.30;;;1.10;;
71351;SDS011;59159;51.652;4.864;2023-02-08T16:06:55;4.07;;;1.23;;
71351;SDS011;59159;51.652;4.864;2023-02-08T16:09:23;3.83;;;1.17;;
71351;SDS011;59159;51.652;4.864;2023-02-08T16:11:51;4.03;;;1.30;;
71351;SDS011;59159;51.652;4.864;2023-02-08T16:14:19;4.70;;;1.40;;
71351;SDS011;59159;51.652;4.864;2023-02-08T16:16:47;3.55;;;1.13;;
71351;SDS011;59159;51.652;4.864;2023-02-08T16:19:21;4.97;;;1.30;;
71351;SDS011;59159;51.652;4.864;2023-02-08T16:21:48;4.18;;;1.50;;
71351;SDS011;59159;51.652;4.864;2023-02-08T16:29:06;3.83;;;1.03;;
71351;SDS011;59159;51.652;4.864;2023-02-08T16:31:41;3.88;;;1.25;;
71351;SDS011;59159;51.652;4.864;2023-02-08T16:34:13;5.22;;;1.55;;
71351;SDS011;59159;51.652;4.864;2023-02-08T16:36:40;4.33;;;1.40;;
71351;SDS011;59159;51.652;4.864;2023-02-08T16:41:59;4.40;;;1.30;;
71351;SDS011;59159;51.652;4.864;2023-02-08T16:44:26;4.60;;;1.30;;
71351;SDS011;59159;51.652;4.864;2023-02-08T16:46:54;3.85;;;1.30;;
71351;SDS011;59159;51.652;4.864;2023-02-08T16:49:20;4.53;;;1.10;;
71351;SDS011;59159;51.652;4.864;2023-02-08T16:51:46;4.40;;;1.42;;
71351;SDS011;59159;51.652;4.864;2023-02-08T16:54:13;4.57;;;1.23;;
71351;SDS011;59159;51.652;4.864;2023-02-08T16:56:40;3.97;;;0.95;;
71351;SDS011;59159;51.652;4.864;2023-02-08T16:59:09;4.00;;;1.30;;
71351;SDS011;59159;51.652;4.864;2023-02-08T17:01:36;4.43;;;1.20;;
71351;SDS011;59159;51.652;4.864;2023-02-08T17:04:02;4.72;;;1.30;;
71351;SDS011;59159;51.652;4.864;2023-02-08T17:06:29;3.90;;;1.00;;
71351;SDS011;59159;51.652;4.864;2023-02-08T17:08:56;3.93;;;1.20;;
71351;SDS011;59159;51.652;4.864;2023-02-08T17:11:22;5.68;;;1.60;;
71351;SDS011;59159;51.652;4.864;2023-02-08T17:13:48;5.13;;;1.50;;
71351;SDS011;59159;51.652;4.864;2023-02-08T17:16:17;4.72;;;1.23;;
71351;SDS011;59159;51.652;4.864;2023-02-08T17:18:47;4.67;;;1.50;;
71351;SDS011;59159;51.652;4.864;2023-02-08T17:21:13;4.43;;;1.42;;
71351;SDS011;59159;51.652;4.864;2023-02-08T17:23:39;4.47;;;1.38;;